Dades meteomassalio
Diari Summary for Diciembre 9, 2017 Units:  Both    English   Metric
« Previous Day
Next Day »
Diari Semanal Mensual Anual Personalitzat
  Maxima: Minima: Mijana:
Temperatura: 55 °F /  12.8 °C 42.1 °F /  5.6 °C 46.6 °F /  8.1 °C
Rosada: 38.5 °F /  3.6 °C 29.8 °F /  -1.2 °C 36.1 °F /  2.3 °C
Humitat: 78 % 51 % 68 %
Velocitat del vent: 29.9 mph /  48.1 km/h - 12.3 mph /  19.8 km/h
Racha vent: 29.9 mph /  48.1 km/h - -
Vent:- - NW
Pressio: 30.4 in /  1027.7 hPa 30.2 in /  1022.2 hPa -
Pluja: 0 in /  0.0 mm    
Historical Graphs
 
 
Tabular Data for Diciembre 9, 2017
Time Temperature Dew Point Pressure Wind Wind Speed Wind Gust Humidity Rainfall Rate (Hourly) solar Conditions
00:02 46 °F /  7.8 °C 38.5 °F /  3.6 °C 30.3 in /  1027.3 hPa NNW 11.5 mph /  18.5 km/h 11.5 mph /  18.5 km/h 75 % 0 in /  0.0 mm 0.0 W/m2 CLR
00:07 46 °F /  7.8 °C 38.5 °F /  3.6 °C 30.3 in /  1027.3 hPa NW 11.5 mph /  18.5 km/h 11.5 mph /  18.5 km/h 75 % 0 in /  0.0 mm 0.0 W/m2 CLR
00:12 46 °F /  7.8 °C 38.5 °F /  3.6 °C 30.3 in /  1027.0 hPa NW 15 mph /  24.1 km/h 15 mph /  24.1 km/h 75 % 0 in /  0.0 mm 0.0 W/m2 CLR
00:17 46 °F /  7.8 °C 38.5 °F /  3.6 °C 30.3 in /  1027.0 hPa NW 12.7 mph /  20.4 km/h 12.7 mph /  20.4 km/h 75 % 0 in /  0.0 mm 0.0 W/m2 CLR
00:22 46 °F /  7.8 °C 38.5 °F /  3.6 °C 30.3 in /  1027.0 hPa NW 13 mph /  20.9 km/h 13 mph /  20.9 km/h 75 % 0 in /  0.0 mm 0.0 W/m2 CLR
00:27 46 °F /  7.8 °C 38.5 °F /  3.6 °C 30.3 in /  1027.0 hPa WNW 15 mph /  24.1 km/h 15 mph /  24.1 km/h 75 % 0 in /  0.0 mm 0.0 W/m2 CLR
00:32 46 °F /  7.8 °C 38.1 °F /  3.4 °C 30.3 in /  1027.0 hPa NW 13.8 mph /  22.2 km/h 13.8 mph /  22.2 km/h 74 % 0 in /  0.0 mm 0.0 W/m2 CLR
00:37 46 °F /  7.8 °C 38.1 °F /  3.4 °C 30.3 in /  1027.0 hPa NW 16.1 mph /  25.9 km/h 16.1 mph /  25.9 km/h 74 % 0 in /  0.0 mm 0.0 W/m2 CLR
00:42 46 °F /  7.8 °C 38.1 °F /  3.4 °C 30.3 in /  1026.6 hPa NW 11.5 mph /  18.5 km/h 11.5 mph /  18.5 km/h 74 % 0 in /  0.0 mm 0.0 W/m2 CLR
00:47 46 °F /  7.8 °C 37.8 °F /  3.2 °C 30.3 in /  1026.6 hPa NW 12 mph /  19.3 km/h 12 mph /  19.3 km/h 73 % 0 in /  0.0 mm 0.0 W/m2 CLR
00:57 46 °F /  7.8 °C 37.8 °F /  3.2 °C 30.3 in /  1027.0 hPa WNW 11.5 mph /  18.5 km/h 11.5 mph /  18.5 km/h 73 % 0 in /  0.0 mm 0.0 W/m2 CLR
01:02 46 °F /  7.8 °C 37.8 °F /  3.2 °C 30.3 in /  1027.0 hPa NNW 18.4 mph /  29.6 km/h 18.4 mph /  29.6 km/h 73 % 0 in /  0.0 mm 0.0 W/m2 CLR
01:07 46 °F /  7.8 °C 37.8 °F /  3.2 °C 30.3 in /  1027.0 hPa NW 12 mph /  19.3 km/h 12 mph /  19.3 km/h 73 % 0 in /  0.0 mm 0.0 W/m2 CLR
01:12 46 °F /  7.8 °C 37.6 °F /  3.1 °C 30.3 in /  1026.6 hPa NNW 15 mph /  24.1 km/h 15 mph /  24.1 km/h 72 % 0 in /  0.0 mm 0.0 W/m2 CLR
01:17 46 °F /  7.8 °C 37.8 °F /  3.2 °C 30.3 in /  1026.6 hPa NW 16.1 mph /  25.9 km/h 16.1 mph /  25.9 km/h 73 % 0 in /  0.0 mm 0.0 W/m2 CLR
01:19 46 °F /  7.8 °C 37.8 °F /  3.2 °C 30.3 in /  1026.6 hPa NW 16.1 mph /  25.9 km/h 16.1 mph /  25.9 km/h 73 % 0 in /  0.0 mm 0.0 W/m2 CLR
01:24 45 °F /  7.2 °C 36.9 °F /  2.7 °C 30.3 in /  1026.6 hPa WNW 16.1 mph /  25.9 km/h 16.1 mph /  25.9 km/h 73 % 0 in /  0.0 mm 0.0 W/m2 CLR
01:29 46 °F /  7.8 °C 37.8 °F /  3.2 °C 30.3 in /  1026.6 hPa NW 15 mph /  24.1 km/h 15 mph /  24.1 km/h 73 % 0 in /  0.0 mm 0.0 W/m2 CLR
01:39 46 °F /  7.8 °C 38.1 °F /  3.4 °C 30.3 in /  1026.6 hPa NNW 25.3 mph /  40.7 km/h 25.3 mph /  40.7 km/h 74 % 0 in /  0.0 mm 0.0 W/m2 CLR
01:44 46 °F /  7.8 °C 38.1 °F /  3.4 °C 30.3 in /  1026.6 hPa NW 19 mph /  30.6 km/h 19 mph /  30.6 km/h 74 % 0 in /  0.0 mm 0.0 W/m2 CLR
01:49 46 °F /  7.8 °C 38.1 °F /  3.4 °C 30.3 in /  1026.6 hPa NW 18.4 mph /  29.6 km/h 18.4 mph /  29.6 km/h 74 % 0 in /  0.0 mm 0.0 W/m2 CLR
01:54 46 °F /  7.8 °C 38.1 °F /  3.4 °C 30.3 in /  1026.6 hPa NW 16.1 mph /  25.9 km/h 16.1 mph /  25.9 km/h 74 % 0 in /  0.0 mm 0.0 W/m2 CLR
01:59 46 °F /  7.8 °C 38.1 °F /  3.4 °C 30.3 in /  1026.6 hPa NW 15 mph /  24.1 km/h 15 mph /  24.1 km/h 74 % 0 in /  0.0 mm 0.0 W/m2 CLR
02:04 46 °F /  7.8 °C 38.1 °F /  3.4 °C 30.3 in /  1026.6 hPa NNW 13.8 mph /  22.2 km/h 13.8 mph /  22.2 km/h 74 % 0 in /  0.0 mm 0.0 W/m2 CLR
02:09 45 °F /  7.2 °C 37.2 °F /  2.9 °C 30.3 in /  1027.0 hPa NW 15 mph /  24.1 km/h 15 mph /  24.1 km/h 74 % 0 in /  0.0 mm 0.0 W/m2 CLR
02:14 46 °F /  7.8 °C 38.5 °F /  3.6 °C 30.3 in /  1026.6 hPa NW 12 mph /  19.3 km/h 12 mph /  19.3 km/h 75 % 0 in /  0.0 mm 0.0 W/m2 CLR
02:19 45 °F /  7.2 °C 37.2 °F /  2.9 °C 30.3 in /  1026.6 hPa NW 17.3 mph /  27.8 km/h 17.3 mph /  27.8 km/h 74 % 0 in /  0.0 mm 0.0 W/m2 CLR
02:24 45 °F /  7.2 °C 37.2 °F /  2.9 °C 30.3 in /  1026.6 hPa NW 16.1 mph /  25.9 km/h 16.1 mph /  25.9 km/h 74 % 0 in /  0.0 mm 0.0 W/m2 CLR
02:29 45 °F /  7.2 °C 37.2 °F /  2.9 °C 30.3 in /  1026.6 hPa NNW 17 mph /  27.4 km/h 17 mph /  27.4 km/h 74 % 0 in /  0.0 mm 0.0 W/m2 CLR
02:34 45 °F /  7.2 °C 37.2 °F /  2.9 °C 30.3 in /  1026.3 hPa NNW 15 mph /  24.1 km/h 15 mph /  24.1 km/h 74 % 0 in /  0.0 mm 0.0 W/m2 CLR
02:39 45 °F /  7.2 °C 37.2 °F /  2.9 °C 30.3 in /  1026.3 hPa WNW 19.6 mph /  31.5 km/h 19.6 mph /  31.5 km/h 74 % 0 in /  0.0 mm 0.0 W/m2 CLR
02:44 45 °F /  7.2 °C 37.2 °F /  2.9 °C 30.3 in /  1026.3 hPa NNW 15 mph /  24.1 km/h 15 mph /  24.1 km/h 74 % 0 in /  0.0 mm 0.0 W/m2 CLR
02:49 45 °F /  7.2 °C 37.2 °F /  2.9 °C 30.3 in /  1026.3 hPa NW 19.6 mph /  31.5 km/h 19.6 mph /  31.5 km/h 74 % 0 in /  0.0 mm 0.0 W/m2 CLR
02:54 45 °F /  7.2 °C 37.6 °F /  3.1 °C 30.3 in /  1026.3 hPa NW 24.2 mph /  38.9 km/h 24.2 mph /  38.9 km/h 75 % 0 in /  0.0 mm 0.0 W/m2 CLR
02:59 45 °F /  7.2 °C 37.6 °F /  3.1 °C 30.3 in /  1026.3 hPa NNW 18.4 mph /  29.6 km/h 18.4 mph /  29.6 km/h 75 % 0 in /  0.0 mm 0.0 W/m2 CLR
03:04 45 °F /  7.2 °C 37.6 °F /  3.1 °C 30.3 in /  1026.3 hPa NW 24.2 mph /  38.9 km/h 24.2 mph /  38.9 km/h 75 % 0 in /  0.0 mm 0.0 W/m2 CLR
03:09 45 °F /  7.2 °C 37.9 °F /  3.3 °C 30.3 in /  1026.3 hPa North 17.3 mph /  27.8 km/h 17.3 mph /  27.8 km/h 76 % 0 in /  0.0 mm 0.0 W/m2 CLR
03:14 45 °F /  7.2 °C 37.9 °F /  3.3 °C 30.3 in /  1026.3 hPa NW 19.6 mph /  31.5 km/h 19.6 mph /  31.5 km/h 76 % 0 in /  0.0 mm 0.0 W/m2 CLR
03:19 45 °F /  7.2 °C 37.9 °F /  3.3 °C 30.3 in /  1026.3 hPa NNW 19.6 mph /  31.5 km/h 19.6 mph /  31.5 km/h 76 % 0 in /  0.0 mm 0.0 W/m2 CLR
03:24 45 °F /  7.2 °C 37.9 °F /  3.3 °C 30.3 in /  1026.3 hPa NW 21.9 mph /  35.2 km/h 21.9 mph /  35.2 km/h 76 % 0 in /  0.0 mm 0.0 W/m2 CLR
03:29 45 °F /  7.2 °C 37.9 °F /  3.3 °C 30.3 in /  1026.3 hPa NW 18.4 mph /  29.6 km/h 18.4 mph /  29.6 km/h 76 % 0 in /  0.0 mm 0.0 W/m2 CLR
03:34 45 °F /  7.2 °C 37.6 °F /  3.1 °C 30.3 in /  1026.3 hPa NW 19.6 mph /  31.5 km/h 19.6 mph /  31.5 km/h 75 % 0 in /  0.0 mm 0.0 W/m2 CLR
03:39 45 °F /  7.2 °C 37.9 °F /  3.3 °C 30.3 in /  1026.3 hPa NW 11 mph /  17.7 km/h 11 mph /  17.7 km/h 76 % 0 in /  0.0 mm 0.0 W/m2 CLR
03:44 45 °F /  7.2 °C 37.9 °F /  3.3 °C 30.3 in /  1026.3 hPa NW 17 mph /  27.4 km/h 17 mph /  27.4 km/h 76 % 0 in /  0.0 mm 0.0 W/m2 CLR
03:49 45 °F /  7.2 °C 38.1 °F /  3.4 °C 30.3 in /  1026.3 hPa NW 12.7 mph /  20.4 km/h 12.7 mph /  20.4 km/h 77 % 0 in /  0.0 mm 0.0 W/m2 CLR
03:54 44.1 °F /  6.7 °C 37.2 °F /  2.9 °C 30.3 in /  1026.3 hPa NW 17.3 mph /  27.8 km/h 17.3 mph /  27.8 km/h 77 % 0 in /  0.0 mm 0.0 W/m2 CLR
03:59 44.1 °F /  6.7 °C 37.2 °F /  2.9 °C 30.3 in /  1026.0 hPa NNW 17.3 mph /  27.8 km/h 17.3 mph /  27.8 km/h 77 % 0 in /  0.0 mm 0.0 W/m2 CLR
04:04 44.1 °F /  6.7 °C 37.2 °F /  2.9 °C 30.3 in /  1026.0 hPa NNW 14 mph /  22.5 km/h 14 mph /  22.5 km/h 77 % 0 in /  0.0 mm 0.0 W/m2 CLR
04:09 44.1 °F /  6.7 °C 36.9 °F /  2.7 °C 30.3 in /  1026.0 hPa NW 17.3 mph /  27.8 km/h 17.3 mph /  27.8 km/h 76 % 0 in /  0.0 mm 0.0 W/m2 CLR
04:16 45 °F /  7.2 °C 37.6 °F /  3.1 °C 30.3 in /  1025.6 hPa NNW 19.6 mph /  31.5 km/h 19.6 mph /  31.5 km/h 75 % 0 in /  0.0 mm 0.0 W/m2 CLR
04:18 45 °F /  7.2 °C 37.6 °F /  3.1 °C 30.3 in /  1026.0 hPa North 19.6 mph /  31.5 km/h 19.6 mph /  31.5 km/h 75 % 0 in /  0.0 mm 0.0 W/m2 CLR
04:23 45 °F /  7.2 °C 37.6 °F /  3.1 °C 30.3 in /  1025.6 hPa NNW 29 mph /  46.7 km/h 29 mph /  46.7 km/h 75 % 0 in /  0.0 mm 0.0 W/m2 CLR
04:24 45 °F /  7.2 °C 37.2 °F /  2.9 °C 30.3 in /  1026.0 hPa NNW 29.9 mph /  48.1 km/h 29.9 mph /  48.1 km/h 74 % 0 in /  0.0 mm 0.0 W/m2 CLR
04:29 45 °F /  7.2 °C 37.2 °F /  2.9 °C 30.3 in /  1026.0 hPa North 20.7 mph /  33.3 km/h 20.7 mph /  33.3 km/h 74 % 0 in /  0.0 mm 0.0 W/m2 CLR
04:30 45 °F /  7.2 °C 37.2 °F /  2.9 °C 30.3 in /  1026.0 hPa North 21.9 mph /  35.2 km/h 21.9 mph /  35.2 km/h 74 % 0 in /  0.0 mm 0.0 W/m2 CLR
04:35 45 °F /  7.2 °C 37.2 °F /  2.9 °C 30.3 in /  1026.0 hPa NW 18.4 mph /  29.6 km/h 18.4 mph /  29.6 km/h 74 % 0 in /  0.0 mm 0.0 W/m2 CLR
04:40 45 °F /  7.2 °C 37.6 °F /  3.1 °C 30.3 in /  1026.0 hPa NNW 19.6 mph /  31.5 km/h 19.6 mph /  31.5 km/h 75 % 0 in /  0.0 mm 0.0 W/m2 CLR
04:45 45 °F /  7.2 °C 37.6 °F /  3.1 °C 30.3 in /  1026.0 hPa NNW 17.3 mph /  27.8 km/h 17.3 mph /  27.8 km/h 75 % 0 in /  0.0 mm 0.0 W/m2 CLR
04:50 44.1 °F /  6.7 °C 36.7 °F /  2.6 °C 30.3 in /  1026.0 hPa NW 19.6 mph /  31.5 km/h 19.6 mph /  31.5 km/h 75 % 0 in /  0.0 mm 0.0 W/m2 CLR
04:55 44.1 °F /  6.7 °C 36.7 °F /  2.6 °C 30.3 in /  1026.0 hPa North 18.4 mph /  29.6 km/h 18.4 mph /  29.6 km/h 75 % 0 in /  0.0 mm 0.0 W/m2 CLR
05:00 44.1 °F /  6.7 °C 36.7 °F /  2.6 °C 30.3 in /  1026.0 hPa NNW 20 mph /  32.2 km/h 20 mph /  32.2 km/h 75 % 0 in /  0.0 mm 0.0 W/m2 CLR
05:05 44.1 °F /  6.7 °C 36.1 °F /  2.3 °C 30.3 in /  1026.0 hPa North 20.7 mph /  33.3 km/h 20.7 mph /  33.3 km/h 74 % 0 in /  0.0 mm 0.0 W/m2 CLR
05:10 44.1 °F /  6.7 °C 36.1 °F /  2.3 °C 30.3 in /  1026.0 hPa NW 18.4 mph /  29.6 km/h 18.4 mph /  29.6 km/h 74 % 0 in /  0.0 mm 0.0 W/m2 CLR
05:15 44.1 °F /  6.7 °C 36.1 °F /  2.3 °C 30.3 in /  1026.0 hPa NNW 20.7 mph /  33.3 km/h 20.7 mph /  33.3 km/h 74 % 0 in /  0.0 mm 0.0 W/m2 CLR
05:20 44.1 °F /  6.7 °C 36.1 °F /  2.3 °C 30.3 in /  1026.0 hPa NNW 19.6 mph /  31.5 km/h 19.6 mph /  31.5 km/h 74 % 0 in /  0.0 mm 0.0 W/m2 CLR
05:25 44.1 °F /  6.7 °C 36.7 °F /  2.6 °C 30.3 in /  1026.0 hPa NW 19.6 mph /  31.5 km/h 19.6 mph /  31.5 km/h 75 % 0 in /  0.0 mm 0.0 W/m2 CLR
05:30 44.1 °F /  6.7 °C 36.9 °F /  2.7 °C 30.3 in /  1025.6 hPa NW 21.9 mph /  35.2 km/h 21.9 mph /  35.2 km/h 76 % 0 in /  0.0 mm 0.0 W/m2 CLR
05:35 44.1 °F /  6.7 °C 36.9 °F /  2.7 °C 30.3 in /  1025.6 hPa NW 25.3 mph /  40.7 km/h 25.3 mph /  40.7 km/h 76 % 0 in /  0.0 mm 0.0 W/m2 CLR
05:40 44.1 °F /  6.7 °C 37.2 °F /  2.9 °C 30.3 in /  1025.6 hPa NW 19.6 mph /  31.5 km/h 19.6 mph /  31.5 km/h 77 % 0 in /  0.0 mm 0.0 W/m2 CLR
05:45 44.1 °F /  6.7 °C 36.9 °F /  2.7 °C 30.3 in /  1025.6 hPa WNW 18.4 mph /  29.6 km/h 18.4 mph /  29.6 km/h 76 % 0 in /  0.0 mm 0.0 W/m2 CLR
05:50 44.1 °F /  6.7 °C 37.2 °F /  2.9 °C 30.3 in /  1026.0 hPa NW 26.5 mph /  42.6 km/h 26.5 mph /  42.6 km/h 77 % 0 in /  0.0 mm 0.0 W/m2 CLR
05:55 44.1 °F /  6.7 °C 37.2 °F /  2.9 °C 30.3 in /  1026.0 hPa NW 19.6 mph /  31.5 km/h 19.6 mph /  31.5 km/h 77 % 0 in /  0.0 mm 0.0 W/m2 CLR
06:00 44.1 °F /  6.7 °C 37.2 °F /  2.9 °C 30.3 in /  1026.0 hPa NNW 21.9 mph /  35.2 km/h 21.9 mph /  35.2 km/h 77 % 0 in /  0.0 mm 0.0 W/m2 CLR
06:05 44.1 °F /  6.7 °C 37.2 °F /  2.9 °C 30.3 in /  1026.0 hPa NW 14 mph /  22.5 km/h 14 mph /  22.5 km/h 77 % 0 in /  0.0 mm 0.0 W/m2 CLR
06:10 43 °F /  6.1 °C 36 °F /  2.2 °C 30.3 in /  1026.0 hPa NNW 10 mph /  16.1 km/h 10 mph /  16.1 km/h 76 % 0 in /  0.0 mm 0.0 W/m2 CLR
06:15 43 °F /  6.1 °C 36 °F /  2.2 °C 30.3 in /  1026.0 hPa NNW 11 mph /  17.7 km/h 11 mph /  17.7 km/h 76 % 0 in /  0.0 mm 0.0 W/m2 CLR
06:25 43 °F /  6.1 °C 36 °F /  2.2 °C 30.3 in /  1026.0 hPa NW 17 mph /  27.4 km/h 17 mph /  27.4 km/h 76 % 0 in /  0.0 mm 0.0 W/m2 CLR
06:30 43 °F /  6.1 °C 36 °F /  2.2 °C 30.3 in /  1026.0 hPa West 15 mph /  24.1 km/h 15 mph /  24.1 km/h 76 % 0 in /  0.0 mm 0.0 W/m2 CLR
06:35 43 °F /  6.1 °C 36 °F /  2.2 °C 30.3 in /  1026.0 hPa WNW 16.1 mph /  25.9 km/h 16.1 mph /  25.9 km/h 76 % 0 in /  0.0 mm 0.0 W/m2 CLR
06:40 43 °F /  6.1 °C 36.3 °F /  2.4 °C 30.3 in /  1026.0 hPa NW 10.4 mph /  16.7 km/h 10.4 mph /  16.7 km/h 77 % 0 in /  0.0 mm 0.0 W/m2 CLR
06:45 43 °F /  6.1 °C 36.3 °F /  2.4 °C 30.3 in /  1026.0 hPa NW 16 mph /  25.7 km/h 16 mph /  25.7 km/h 77 % 0 in /  0.0 mm 0.0 W/m2 CLR
06:50 43 °F /  6.1 °C 36.3 °F /  2.4 °C 30.3 in /  1026.0 hPa North 12.7 mph /  20.4 km/h 12.7 mph /  20.4 km/h 77 % 0 in /  0.0 mm 0.0 W/m2 CLR
07:05 43 °F /  6.1 °C 36.7 °F /  2.6 °C 30.3 in /  1026.0 hPa NW 16.1 mph /  25.9 km/h 16.1 mph /  25.9 km/h 78 % 0 in /  0.0 mm 0.0 W/m2 CLR
07:10 43 °F /  6.1 °C 36.7 °F /  2.6 °C 30.3 in /  1026.0 hPa WNW 18.4 mph /  29.6 km/h 18.4 mph /  29.6 km/h 78 % 0 in /  0.0 mm 0.0 W/m2 CLR
07:15 43 °F /  6.1 °C 36.3 °F /  2.4 °C 30.3 in /  1026.0 hPa NW 15 mph /  24.1 km/h 15 mph /  24.1 km/h 77 % 0 in /  0.0 mm 0.0 W/m2 CLR
07:20 43 °F /  6.1 °C 36.3 °F /  2.4 °C 30.3 in /  1026.0 hPa NW 21.9 mph /  35.2 km/h 21.9 mph /  35.2 km/h 77 % 0 in /  0.0 mm 0.0 W/m2 CLR
07:25 43 °F /  6.1 °C 36.3 °F /  2.4 °C 30.3 in /  1026.0 hPa NNW 21.9 mph /  35.2 km/h 21.9 mph /  35.2 km/h 77 % 0 in /  0.0 mm 0.0 W/m2 CLR
07:31 43 °F /  6.1 °C 36.3 °F /  2.4 °C 30.3 in /  1025.6 hPa NW 15 mph /  24.1 km/h 15 mph /  24.1 km/h 77 % 0 in /  0.0 mm 0.0 W/m2 CLR
07:36 43 °F /  6.1 °C 36.3 °F /  2.4 °C 30.3 in /  1026.0 hPa NW 15 mph /  24.1 km/h 15 mph /  24.1 km/h 77 % 0 in /  0.0 mm 0.0 W/m2 CLR
07:46 43 °F /  6.1 °C 36 °F /  2.2 °C 30.3 in /  1026.0 hPa WNW 15 mph /  24.1 km/h 15 mph /  24.1 km/h 76 % 0 in /  0.0 mm 0.0 W/m2 CLR
07:51 43 °F /  6.1 °C 36 °F /  2.2 °C 30.3 in /  1026.0 hPa West 10.4 mph /  16.7 km/h 10.4 mph /  16.7 km/h 76 % 0 in /  0.0 mm 0.0 W/m2 CLR
07:56 43 °F /  6.1 °C 36 °F /  2.2 °C 30.3 in /  1026.0 hPa West 17.3 mph /  27.8 km/h 17.3 mph /  27.8 km/h 76 % 0 in /  0.0 mm 0.0 W/m2 CLR
08:01 42.1 °F /  5.6 °C 35.1 °F /  1.7 °C 30.3 in /  1026.0 hPa West 17 mph /  27.4 km/h 17 mph /  27.4 km/h 76 % 0 in /  0.0 mm 0.0 W/m2 CLR
08:06 42.1 °F /  5.6 °C 35.1 °F /  1.7 °C 30.3 in /  1026.3 hPa WNW 8.1 mph /  13.0 km/h 8.1 mph /  13.0 km/h 76 % 0 in /  0.0 mm 0.0 W/m2 OVC
08:16 42.1 °F /  5.6 °C 35.2 °F /  1.8 °C 30.3 in /  1026.3 hPa NW 13.8 mph /  22.2 km/h 13.8 mph /  22.2 km/h 77 % 0 in /  0.0 mm 5.0 W/m2 OVC
08:21 42.1 °F /  5.6 °C 35.2 °F /  1.8 °C 30.3 in /  1026.3 hPa NW 18.4 mph /  29.6 km/h 18.4 mph /  29.6 km/h 77 % 0 in /  0.0 mm 7.0 W/m2 BKN
08:26 43 °F /  6.1 °C 36.3 °F /  2.4 °C 30.3 in /  1026.3 hPa NNW 15 mph /  24.1 km/h 15 mph /  24.1 km/h 77 % 0 in /  0.0 mm 11.0 W/m2 BKN
08:36 43 °F /  6.1 °C 36 °F /  2.2 °C 30.3 in /  1026.3 hPa NW 14 mph /  22.5 km/h 14 mph /  22.5 km/h 76 % 0 in /  0.0 mm 14.0 W/m2 BKN
08:41 43 °F /  6.1 °C 35.6 °F /  2.0 °C 30.3 in /  1026.3 hPa NW 12 mph /  19.3 km/h 12 mph /  19.3 km/h 75 % 0 in /  0.0 mm 18.0 W/m2 BKN
08:46 43 °F /  6.1 °C 35.6 °F /  2.0 °C 30.3 in /  1026.6 hPa WNW 13 mph /  20.9 km/h 13 mph /  20.9 km/h 75 % 0 in /  0.0 mm 25.0 W/m2 BKN
08:51 43 °F /  6.1 °C 35.6 °F /  2.0 °C 30.3 in /  1026.6 hPa WNW 15 mph /  24.1 km/h 15 mph /  24.1 km/h 75 % 0 in /  0.0 mm 37.0 W/m2 BKN
08:56 43 °F /  6.1 °C 35.6 °F /  2.0 °C 30.3 in /  1026.6 hPa NNW 19.6 mph /  31.5 km/h 19.6 mph /  31.5 km/h 75 % 0 in /  0.0 mm 44.0 W/m2 BKN
09:01 43 °F /  6.1 °C 35.6 °F /  2.0 °C 30.3 in /  1026.6 hPa NW 16.1 mph /  25.9 km/h 16.1 mph /  25.9 km/h 75 % 0 in /  0.0 mm 49.0 W/m2 SCT
09:21 44.1 °F /  6.7 °C 36 °F /  2.2 °C 30.3 in /  1027.0 hPa NW 9.2 mph /  14.8 km/h 9.2 mph /  14.8 km/h 73 % 0 in /  0.0 mm 98.0 W/m2 CLR
09:31 44.1 °F /  6.7 °C 35.6 °F /  2.0 °C 30.3 in /  1027.0 hPa NNW 16.1 mph /  25.9 km/h 16.1 mph /  25.9 km/h 72 % 0 in /  0.0 mm 134.0 W/m2 CLR
09:46 45 °F /  7.2 °C 35.8 °F /  2.1 °C 30.3 in /  1027.3 hPa NW 19.6 mph /  31.5 km/h 19.6 mph /  31.5 km/h 70 % 0 in /  0.0 mm 130.0 W/m2 CLR
09:51 45 °F /  7.2 °C 35.8 °F /  2.1 °C 30.3 in /  1027.3 hPa NW 16.1 mph /  25.9 km/h 16.1 mph /  25.9 km/h 70 % 0 in /  0.0 mm 139.0 W/m2 CLR
09:56 45 °F /  7.2 °C 35.8 °F /  2.1 °C 30.3 in /  1027.3 hPa NW 23 mph /  37.0 km/h 23 mph /  37.0 km/h 70 % 0 in /  0.0 mm 118.0 W/m2 CLR
10:01 46 °F /  7.8 °C 36.9 °F /  2.7 °C 30.3 in /  1027.3 hPa NW 18.4 mph /  29.6 km/h 18.4 mph /  29.6 km/h 70 % 0 in /  0.0 mm 153.0 W/m2 CLR
10:04 45 °F /  7.2 °C 36.1 °F /  2.3 °C 30.3 in /  1027.3 hPa NW 16.1 mph /  25.9 km/h 16.1 mph /  25.9 km/h 71 % 0 in /  0.0 mm 127.0 W/m2 CLR
10:09 46 °F /  7.8 °C 37 °F /  2.8 °C 30.3 in /  1027.3 hPa NW 16.1 mph /  25.9 km/h 16.1 mph /  25.9 km/h 71 % 0 in /  0.0 mm 171.0 W/m2 CLR
10:14 46 °F /  7.8 °C 37 °F /  2.8 °C 30.3 in /  1027.3 hPa NW 19.6 mph /  31.5 km/h 19.6 mph /  31.5 km/h 71 % 0 in /  0.0 mm 211.0 W/m2 CLR
10:19 46 °F /  7.8 °C 37 °F /  2.8 °C 30.3 in /  1027.3 hPa NW 13.8 mph /  22.2 km/h 13.8 mph /  22.2 km/h 71 % 0 in /  0.0 mm 234.0 W/m2 CLR
10:24 46 °F /  7.8 °C 37 °F /  2.8 °C 30.3 in /  1027.3 hPa NNW 19 mph /  30.6 km/h 19 mph /  30.6 km/h 71 % 0 in /  0.0 mm 258.0 W/m2 CLR
10:29 46 °F /  7.8 °C 36.9 °F /  2.7 °C 30.3 in /  1027.3 hPa NW 19.6 mph /  31.5 km/h 19.6 mph /  31.5 km/h 70 % 0 in /  0.0 mm 237.0 W/m2 CLR
10:34 46.9 °F /  8.3 °C 37.8 °F /  3.2 °C 30.3 in /  1027.3 hPa NW 16.1 mph /  25.9 km/h 16.1 mph /  25.9 km/h 70 % 0 in /  0.0 mm 257.0 W/m2 CLR
10:39 46.9 °F /  8.3 °C 37.8 °F /  3.2 °C 30.3 in /  1027.3 hPa NW 17.3 mph /  27.8 km/h 17.3 mph /  27.8 km/h 70 % 0 in /  0.0 mm 234.0 W/m2 CLR
10:44 46.9 °F /  8.3 °C 37.8 °F /  3.2 °C 30.3 in /  1027.3 hPa NNW 18.4 mph /  29.6 km/h 18.4 mph /  29.6 km/h 70 % 0 in /  0.0 mm 269.0 W/m2 CLR
10:49 46.9 °F /  8.3 °C 37.4 °F /  3.0 °C 30.3 in /  1027.3 hPa NW 20 mph /  32.2 km/h 20 mph /  32.2 km/h 69 % 0 in /  0.0 mm 297.0 W/m2 CLR
10:54 46.9 °F /  8.3 °C 37 °F /  2.8 °C 30.4 in /  1027.7 hPa NW 18.4 mph /  29.6 km/h 18.4 mph /  29.6 km/h 68 % 0 in /  0.0 mm 295.0 W/m2 CLR
10:59 46.9 °F /  8.3 °C 35.8 °F /  2.1 °C 30.4 in /  1027.7 hPa NNW 24.2 mph /  38.9 km/h 24.2 mph /  38.9 km/h 65 % 0 in /  0.0 mm 334.0 W/m2 CLR
11:04 48 °F /  8.9 °C 36.9 °F /  2.7 °C 30.4 in /  1027.7 hPa NW 26.5 mph /  42.6 km/h 26.5 mph /  42.6 km/h 65 % 0 in /  0.0 mm 348.0 W/m2 CLR
11:09 48 °F /  8.9 °C 36.9 °F /  2.7 °C 30.4 in /  1027.7 hPa NW 17.3 mph /  27.8 km/h 17.3 mph /  27.8 km/h 65 % 0 in /  0.0 mm 341.0 W/m2 CLR
11:14 48.9 °F /  9.4 °C 37.2 °F /  2.9 °C 30.4 in /  1027.7 hPa NNW 21.9 mph /  35.2 km/h 21.9 mph /  35.2 km/h 64 % 0 in /  0.0 mm 353.0 W/m2 CLR
11:19 48.9 °F /  9.4 °C 36.9 °F /  2.7 °C 30.4 in /  1027.7 hPa NW 20.7 mph /  33.3 km/h 20.7 mph /  33.3 km/h 63 % 0 in /  0.0 mm 366.0 W/m2 CLR
11:24 48.9 °F /  9.4 °C 36.5 °F /  2.5 °C 30.4 in /  1027.7 hPa NNW 26.5 mph /  42.6 km/h 26.5 mph /  42.6 km/h 62 % 0 in /  0.0 mm 373.0 W/m2 CLR
11:29 48.9 °F /  9.4 °C 36.5 °F /  2.5 °C 30.4 in /  1027.7 hPa NW 19 mph /  30.6 km/h 19 mph /  30.6 km/h 62 % 0 in /  0.0 mm 381.0 W/m2 CLR
11:34 48.9 °F /  9.4 °C 36.5 °F /  2.5 °C 30.4 in /  1027.7 hPa NNW 24.2 mph /  38.9 km/h 24.2 mph /  38.9 km/h 62 % 0 in /  0.0 mm 390.0 W/m2 CLR
11:39 50 °F /  10.0 °C 37.6 °F /  3.1 °C 30.4 in /  1027.7 hPa NNW 18.4 mph /  29.6 km/h 18.4 mph /  29.6 km/h 62 % 0 in /  0.0 mm 385.0 W/m2 CLR
11:44 50 °F /  10.0 °C 36.7 °F /  2.6 °C 30.3 in /  1027.3 hPa NNW 21.9 mph /  35.2 km/h 21.9 mph /  35.2 km/h 60 % 0 in /  0.0 mm 397.0 W/m2 CLR
11:49 50 °F /  10.0 °C 36.7 °F /  2.6 °C 30.3 in /  1027.3 hPa NW 20.7 mph /  33.3 km/h 20.7 mph /  33.3 km/h 60 % 0 in /  0.0 mm 401.0 W/m2 CLR
11:54 50 °F /  10.0 °C 36.1 °F /  2.3 °C 30.3 in /  1027.3 hPa NNW 21.9 mph /  35.2 km/h 21.9 mph /  35.2 km/h 59 % 0 in /  0.0 mm 408.0 W/m2 CLR
11:59 51.1 °F /  10.6 °C 36.7 °F /  2.6 °C 30.3 in /  1027.3 hPa NW 24.2 mph /  38.9 km/h 24.2 mph /  38.9 km/h 58 % 0 in /  0.0 mm 410.0 W/m2 CLR
12:04 50 °F /  10.0 °C 35.8 °F /  2.1 °C 30.4 in /  1027.7 hPa NW 20 mph /  32.2 km/h 20 mph /  32.2 km/h 58 % 0 in /  0.0 mm 418.0 W/m2 CLR
12:09 51.1 °F /  10.6 °C 36.3 °F /  2.4 °C 30.4 in /  1027.7 hPa NNW 24.2 mph /  38.9 km/h 24.2 mph /  38.9 km/h 57 % 0 in /  0.0 mm 431.0 W/m2 CLR
12:14 51.1 °F /  10.6 °C 36.3 °F /  2.4 °C 30.4 in /  1027.7 hPa NNW 26 mph /  41.8 km/h 26 mph /  41.8 km/h 57 % 0 in /  0.0 mm 427.0 W/m2 CLR
12:19 51.1 °F /  10.6 °C 36.3 °F /  2.4 °C 30.4 in /  1027.7 hPa NNW 21.9 mph /  35.2 km/h 21.9 mph /  35.2 km/h 57 % 0 in /  0.0 mm 431.0 W/m2 CLR
12:24 51.1 °F /  10.6 °C 36.3 °F /  2.4 °C 30.4 in /  1027.7 hPa North 20.7 mph /  33.3 km/h 20.7 mph /  33.3 km/h 57 % 0 in /  0.0 mm 434.0 W/m2 CLR
12:29 51.1 °F /  10.6 °C 36.3 °F /  2.4 °C 30.3 in /  1027.3 hPa NNW 17 mph /  27.4 km/h 17 mph /  27.4 km/h 57 % 0 in /  0.0 mm 431.0 W/m2 CLR
12:34 51.1 °F /  10.6 °C 36.3 °F /  2.4 °C 30.4 in /  1027.7 hPa NNW 26.5 mph /  42.6 km/h 26.5 mph /  42.6 km/h 57 % 0 in /  0.0 mm 436.0 W/m2 CLR
12:39 51.1 °F /  10.6 °C 36.3 °F /  2.4 °C 30.3 in /  1027.3 hPa NNW 21.9 mph /  35.2 km/h 21.9 mph /  35.2 km/h 57 % 0 in /  0.0 mm 450.0 W/m2 CLR
12:44 51.1 °F /  10.6 °C 36.3 °F /  2.4 °C 30.3 in /  1027.3 hPa North 19.6 mph /  31.5 km/h 19.6 mph /  31.5 km/h 57 % 0 in /  0.0 mm 403.0 W/m2 CLR
12:49 51.1 °F /  10.6 °C 36.7 °F /  2.6 °C 30.3 in /  1027.3 hPa NNW 18.4 mph /  29.6 km/h 18.4 mph /  29.6 km/h 58 % 0 in /  0.0 mm 403.0 W/m2 CLR
12:54 51.1 °F /  10.6 °C 36.3 °F /  2.4 °C 30.3 in /  1027.3 hPa NNW 17.3 mph /  27.8 km/h 17.3 mph /  27.8 km/h 57 % 0 in /  0.0 mm 352.0 W/m2 CLR
12:59 51.1 °F /  10.6 °C 35.8 °F /  2.1 °C 30.3 in /  1027.3 hPa NNW 15 mph /  24.1 km/h 15 mph /  24.1 km/h 56 % 0 in /  0.0 mm 439.0 W/m2 CLR
13:04 51.1 °F /  10.6 °C 35.8 °F /  2.1 °C 30.3 in /  1027.0 hPa NNW 17.3 mph /  27.8 km/h 17.3 mph /  27.8 km/h 56 % 0 in /  0.0 mm 438.0 W/m2 CLR
13:09 52 °F /  11.1 °C 36.3 °F /  2.4 °C 30.3 in /  1027.0 hPa NW 23 mph /  37.0 km/h 23 mph /  37.0 km/h 55 % 0 in /  0.0 mm 446.0 W/m2 CLR
13:14 52 °F /  11.1 °C 36 °F /  2.2 °C 30.3 in /  1027.0 hPa NNW 23 mph /  37.0 km/h 23 mph /  37.0 km/h 54 % 0 in /  0.0 mm 452.0 W/m2 CLR
13:19 52 °F /  11.1 °C 36 °F /  2.2 °C 30.3 in /  1027.0 hPa North 19.6 mph /  31.5 km/h 19.6 mph /  31.5 km/h 54 % 0 in /  0.0 mm 434.0 W/m2 CLR
13:24 52 °F /  11.1 °C 36.3 °F /  2.4 °C 30.3 in /  1026.6 hPa WNW 18.4 mph /  29.6 km/h 18.4 mph /  29.6 km/h 55 % 0 in /  0.0 mm 432.0 W/m2 CLR
13:29 53.1 °F /  11.7 °C 36.9 °F /  2.7 °C 30.3 in /  1026.6 hPa North 24 mph /  38.6 km/h 24 mph /  38.6 km/h 54 % 0 in /  0.0 mm 432.0 W/m2 CLR
13:34 53.1 °F /  11.7 °C 37.2 °F /  2.9 °C 30.3 in /  1026.6 hPa NNW 20.7 mph /  33.3 km/h 20.7 mph /  33.3 km/h 55 % 0 in /  0.0 mm 434.0 W/m2 CLR
13:39 53.1 °F /  11.7 °C 36.9 °F /  2.7 °C 30.3 in /  1026.6 hPa NNW 18 mph /  29.0 km/h 18 mph /  29.0 km/h 54 % 0 in /  0.0 mm 436.0 W/m2 CLR
13:44 53.1 °F /  11.7 °C 36.9 °F /  2.7 °C 30.3 in /  1026.6 hPa North 18.4 mph /  29.6 km/h 18.4 mph /  29.6 km/h 54 % 0 in /  0.0 mm 443.0 W/m2 CLR
13:49 53.1 °F /  11.7 °C 36.3 °F /  2.4 °C 30.3 in /  1026.6 hPa NNW 19.6 mph /  31.5 km/h 19.6 mph /  31.5 km/h 53 % 0 in /  0.0 mm 420.0 W/m2 CLR
13:54 53.1 °F /  11.7 °C 36.3 °F /  2.4 °C 30.3 in /  1026.3 hPa NNW 19.6 mph /  31.5 km/h 19.6 mph /  31.5 km/h 53 % 0 in /  0.0 mm 418.0 W/m2 CLR
13:59 54 °F /  12.2 °C 37.2 °F /  2.9 °C 30.3 in /  1026.3 hPa NW 23 mph /  37.0 km/h 23 mph /  37.0 km/h 53 % 0 in /  0.0 mm 427.0 W/m2 CLR
14:04 54 °F /  12.2 °C 36.9 °F /  2.7 °C 30.3 in /  1026.3 hPa North 21.9 mph /  35.2 km/h 21.9 mph /  35.2 km/h 52 % 0 in /  0.0 mm 418.0 W/m2 CLR
14:09 54 °F /  12.2 °C 36.9 °F /  2.7 °C 30.3 in /  1026.3 hPa NNW 20.7 mph /  33.3 km/h 20.7 mph /  33.3 km/h 52 % 0 in /  0.0 mm 406.0 W/m2 CLR
14:14 54 °F /  12.2 °C 37.2 °F /  2.9 °C 30.3 in /  1026.0 hPa NW 19.6 mph /  31.5 km/h 19.6 mph /  31.5 km/h 53 % 0 in /  0.0 mm 390.0 W/m2 CLR
14:19 53.1 °F /  11.7 °C 35.8 °F /  2.1 °C 30.3 in /  1026.0 hPa North 20 mph /  32.2 km/h 20 mph /  32.2 km/h 52 % 0 in /  0.0 mm 387.0 W/m2 CLR
14:24 54 °F /  12.2 °C 36.9 °F /  2.7 °C 30.3 in /  1026.0 hPa North 21.9 mph /  35.2 km/h 21.9 mph /  35.2 km/h 52 % 0 in /  0.0 mm 376.0 W/m2 CLR
14:29 54 °F /  12.2 °C 36.3 °F /  2.4 °C 30.3 in /  1026.0 hPa NNW 26.5 mph /  42.6 km/h 26.5 mph /  42.6 km/h 51 % 0 in /  0.0 mm 364.0 W/m2 CLR
14:34 54 °F /  12.2 °C 36.9 °F /  2.7 °C 30.3 in /  1026.0 hPa NNW 18.4 mph /  29.6 km/h 18.4 mph /  29.6 km/h 52 % 0 in /  0.0 mm 367.0 W/m2 CLR
14:39 54 °F /  12.2 °C 36.9 °F /  2.7 °C 30.3 in /  1025.6 hPa NNW 12.7 mph /  20.4 km/h 12.8 mph /  20.6 km/h 52 % 0 in /  0.0 mm 359.0 W/m2 CLR
14:41 54 °F /  12.2 °C 36.3 °F /  2.4 °C 30.3 in /  1025.6 hPa NNW 17.3 mph /  27.8 km/h 17.3 mph /  27.8 km/h 51 % 0 in /  0.0 mm 359.0 W/m2 CLR
14:46 55 °F /  12.8 °C 37.2 °F /  2.9 °C 30.3 in /  1025.6 hPa NW 19.6 mph /  31.5 km/h 19.6 mph /  31.5 km/h 51 % 0 in /  0.0 mm 359.0 W/m2 CLR
14:51 55 °F /  12.8 °C 37.8 °F /  3.2 °C 30.3 in /  1025.6 hPa NNW 14 mph /  22.5 km/h 14 mph /  22.5 km/h 52 % 0 in /  0.0 mm 348.0 W/m2 CLR
15:01 55 °F /  12.8 °C 37.2 °F /  2.9 °C 30.3 in /  1025.3 hPa NNW 9.2 mph /  14.8 km/h 9.2 mph /  14.8 km/h 51 % 0 in /  0.0 mm 255.0 W/m2 CLR
15:06 54 °F /  12.2 °C 36.3 °F /  2.4 °C 30.3 in /  1025.3 hPa NNW 17.3 mph /  27.8 km/h 17.3 mph /  27.8 km/h 51 % 0 in /  0.0 mm 283.0 W/m2 CLR
15:11 54 °F /  12.2 °C 36.9 °F /  2.7 °C 30.3 in /  1025.3 hPa NNW 12.7 mph /  20.4 km/h 12.7 mph /  20.4 km/h 52 % 0 in /  0.0 mm 297.0 W/m2 CLR
15:16 54 °F /  12.2 °C 36.9 °F /  2.7 °C 30.3 in /  1025.3 hPa NNW 12.7 mph /  20.4 km/h 12.7 mph /  20.4 km/h 52 % 0 in /  0.0 mm 343.0 W/m2 CLR
15:21 54 °F /  12.2 °C 36.9 °F /  2.7 °C 30.3 in /  1024.9 hPa NNW 18.4 mph /  29.6 km/h 18.4 mph /  29.6 km/h 52 % 0 in /  0.0 mm 345.0 W/m2 CLR
15:26 55 °F /  12.8 °C 37.8 °F /  3.2 °C 30.3 in /  1025.3 hPa NNW 15 mph /  24.1 km/h 15 mph /  24.1 km/h 52 % 0 in /  0.0 mm 313.0 W/m2 CLR
15:31 55 °F /  12.8 °C 37.8 °F /  3.2 °C 30.3 in /  1025.3 hPa NNW 17.3 mph /  27.8 km/h 17.3 mph /  27.8 km/h 52 % 0 in /  0.0 mm 262.0 W/m2 CLR
15:42 54 °F /  12.2 °C 36.9 °F /  2.7 °C 30.3 in /  1024.9 hPa WNW 10.4 mph /  16.7 km/h 10.4 mph /  16.7 km/h 52 % 0 in /  0.0 mm 227.0 W/m2 CLR
15:57 53.1 °F /  11.7 °C 35.8 °F /  2.1 °C 30.3 in /  1024.9 hPa North 12 mph /  19.3 km/h 12 mph /  19.3 km/h 52 % 0 in /  0.0 mm 70.0 W/m2 CLR
16:02 53.1 °F /  11.7 °C 36.3 °F /  2.4 °C 30.3 in /  1024.9 hPa NW 8.1 mph /  13.0 km/h 8.1 mph /  13.0 km/h 53 % 0 in /  0.0 mm 65.0 W/m2 FEW
16:07 52 °F /  11.1 °C 36 °F /  2.2 °C 30.3 in /  1024.9 hPa NNW 8 mph /  12.9 km/h 8 mph /  12.9 km/h 54 % 0 in /  0.0 mm 67.0 W/m2 FEW
16:12 52 °F /  11.1 °C 36 °F /  2.2 °C 30.3 in /  1024.9 hPa North 10.4 mph /  16.7 km/h 10.4 mph /  16.7 km/h 54 % 0 in /  0.0 mm 67.0 W/m2 SCT
16:27 52 °F /  11.1 °C 36 °F /  2.2 °C 30.3 in /  1024.9 hPa North 11 mph /  17.7 km/h 11 mph /  17.7 km/h 54 % 0 in /  0.0 mm 51.0 W/m2 SCT
16:32 52 °F /  11.1 °C 36.3 °F /  2.4 °C 30.3 in /  1024.9 hPa North 10.4 mph /  16.7 km/h 10.4 mph /  16.7 km/h 55 % 0 in /  0.0 mm 49.0 W/m2 SCT
16:42 52 °F /  11.1 °C 36.3 °F /  2.4 °C 30.3 in /  1024.9 hPa NNE 8.1 mph /  13.0 km/h 8.1 mph /  13.0 km/h 55 % 0 in /  0.0 mm 30.0 W/m2 BKN
16:52 51.1 °F /  10.6 °C 35.8 °F /  2.1 °C 30.3 in /  1024.9 hPa NNE 5.8 mph /  9.3 km/h 5.8 mph /  9.3 km/h 56 % 0 in /  0.0 mm 12.0 W/m2 BKN
16:57 51.1 °F /  10.6 °C 35.8 °F /  2.1 °C 30.3 in /  1024.9 hPa NNE 8.1 mph /  13.0 km/h 8.1 mph /  13.0 km/h 56 % 0 in /  0.0 mm 11.0 W/m2 BKN
17:07 51.1 °F /  10.6 °C 36.3 °F /  2.4 °C 30.3 in /  1024.6 hPa NNW 9.2 mph /  14.8 km/h 9.2 mph /  14.8 km/h 57 % 0 in /  0.0 mm 9.0 W/m2 BKN
17:12 50 °F /  10.0 °C 35.4 °F /  1.9 °C 30.3 in /  1024.6 hPa North 8.1 mph /  13.0 km/h 8.1 mph /  13.0 km/h 57 % 0 in /  0.0 mm 9.0 W/m2 BKN
17:22 50 °F /  10.0 °C 35.8 °F /  2.1 °C 30.3 in /  1024.6 hPa North 3.5 mph /  5.6 km/h 3.6 mph /  5.8 km/h 58 % 0 in /  0.0 mm 5.0 W/m2 OVC
17:27 50 °F /  10.0 °C 35.8 °F /  2.1 °C 30.3 in /  1024.6 hPa Calm     58 % 0 in /  0.0 mm 0.0 W/m2 OVC
17:37 50 °F /  10.0 °C 35.8 °F /  2.1 °C 30.3 in /  1024.6 hPa Calm     58 % 0 in /  0.0 mm 0.0 W/m2 OVC
17:42 48.9 °F /  9.4 °C 34.9 °F /  1.6 °C 30.3 in /  1024.6 hPa Calm     58 % 0 in /  0.0 mm 0.0 W/m2 CLR
17:47 48.9 °F /  9.4 °C 34.9 °F /  1.6 °C 30.3 in /  1024.6 hPa Calm     58 % 0 in /  0.0 mm 0.0 W/m2 CLR
17:52 48.9 °F /  9.4 °C 35.2 °F /  1.8 °C 30.3 in /  1024.6 hPa Calm     59 % 0 in /  0.0 mm 0.0 W/m2 CLR
17:57 48.9 °F /  9.4 °C 35.2 °F /  1.8 °C 30.3 in /  1024.6 hPa Calm     59 % 0 in /  0.0 mm 0.0 W/m2 CLR
18:02 48.9 °F /  9.4 °C 35.2 °F /  1.8 °C 30.3 in /  1024.6 hPa Calm     59 % 0 in /  0.0 mm 0.0 W/m2 CLR
18:07 48.9 °F /  9.4 °C 35.2 °F /  1.8 °C 30.3 in /  1024.6 hPa Calm     59 % 0 in /  0.0 mm 0.0 W/m2 CLR
18:12 48.9 °F /  9.4 °C 35.8 °F /  2.1 °C 30.3 in /  1024.6 hPa Calm     60 % 0 in /  0.0 mm 0.0 W/m2 CLR
18:17 48.9 °F /  9.4 °C 35.2 °F /  1.8 °C 30.3 in /  1024.6 hPa Calm     59 % 0 in /  0.0 mm 0.0 W/m2 CLR
18:22 48.9 °F /  9.4 °C 35.2 °F /  1.8 °C 30.3 in /  1024.6 hPa Calm     59 % 0 in /  0.0 mm 0.0 W/m2 CLR
18:23 48.9 °F /  9.4 °C 35.2 °F /  1.8 °C 30.3 in /  1024.6 hPa Calm     59 % 0 in /  0.0 mm 0.0 W/m2 CLR
18:28 48.9 °F /  9.4 °C 35.8 °F /  2.1 °C 30.3 in /  1024.6 hPa Calm     60 % 0 in /  0.0 mm 0.0 W/m2 CLR
18:33 48 °F /  8.9 °C 34.9 °F /  1.6 °C 30.3 in /  1024.6 hPa Calm     60 % 0 in /  0.0 mm 0.0 W/m2 CLR
18:38 48 °F /  8.9 °C 34.9 °F /  1.6 °C 30.3 in /  1024.6 hPa Calm     60 % 0 in /  0.0 mm 0.0 W/m2 CLR
18:43 48 °F /  8.9 °C 34.9 °F /  1.6 °C 30.3 in /  1024.6 hPa Calm     60 % 0 in /  0.0 mm 0.0 W/m2 CLR
18:48 48 °F /  8.9 °C 34.9 °F /  1.6 °C 30.3 in /  1024.6 hPa Calm     60 % 0 in /  0.0 mm 0.0 W/m2 CLR
18:53 46.9 °F /  8.3 °C 33.8 °F /  1.0 °C 30.3 in /  1024.3 hPa Calm     60 % 0 in /  0.0 mm 0.0 W/m2 CLR
18:58 46.9 °F /  8.3 °C 33.8 °F /  1.0 °C 30.3 in /  1024.3 hPa Calm     60 % 0 in /  0.0 mm 0.0 W/m2 CLR
19:03 46.9 °F /  8.3 °C 33.8 °F /  1.0 °C 30.3 in /  1024.3 hPa Calm     60 % 0 in /  0.0 mm 0.0 W/m2 CLR
19:08 46.9 °F /  8.3 °C 33.8 °F /  1.0 °C 30.3 in /  1024.3 hPa Calm     60 % 0 in /  0.0 mm 0.0 W/m2 CLR
19:13 46 °F /  7.8 °C 33.3 °F /  0.7 °C 30.3 in /  1024.3 hPa Calm     61 % 0 in /  0.0 mm 0.0 W/m2 CLR
19:18 46 °F /  7.8 °C 33.3 °F /  0.7 °C 30.3 in /  1024.3 hPa Calm     61 % 0 in /  0.0 mm 0.0 W/m2 CLR
19:23 45 °F /  7.2 °C 32.7 °F /  0.4 °C 30.3 in /  1024.3 hPa Calm     62 % 0 in /  0.0 mm 0.0 W/m2 CLR
19:28 45 °F /  7.2 °C 32.7 °F /  0.4 °C 30.2 in /  1023.9 hPa Calm     62 % 0 in /  0.0 mm 0.0 W/m2 CLR
19:33 44.1 °F /  6.7 °C 31.8 °F /  -0.1 °C 30.2 in /  1023.9 hPa Calm     62 % 0 in /  0.0 mm 0.0 W/m2 CLR
19:38 43 °F /  6.1 °C 30.9 °F /  -0.6 °C 30.2 in /  1023.9 hPa Calm     62 % 0 in /  0.0 mm 0.0 W/m2 CLR
19:43 42.1 °F /  5.6 °C 29.8 °F /  -1.2 °C 30.2 in /  1023.9 hPa Calm     62 % 0 in /  0.0 mm 0.0 W/m2 CLR
19:48 42.1 °F /  5.6 °C 30.4 °F /  -0.9 °C 30.2 in /  1023.9 hPa Calm     63 % 0 in /  0.0 mm 0.0 W/m2 CLR
19:53 42.1 °F /  5.6 °C 31.1 °F /  -0.5 °C 30.2 in /  1023.9 hPa Calm     65 % 0 in /  0.0 mm 0.0 W/m2 CLR
19:58 43 °F /  6.1 °C 32 °F /  0.0 °C 30.2 in /  1023.9 hPa Calm     65 % 0 in /  0.0 mm 0.0 W/m2 CLR
20:03 43 °F /  6.1 °C 32.4 °F /  0.2 °C 30.2 in /  1023.9 hPa Calm     66 % 0 in /  0.0 mm 0.0 W/m2 CLR
20:08 43 °F /  6.1 °C 32.4 °F /  0.2 °C 30.2 in /  1023.9 hPa Calm     66 % 0 in /  0.0 mm 0.0 W/m2 CLR
20:13 44.1 °F /  6.7 °C 33.4 °F /  0.8 °C 30.2 in /  1023.9 hPa Calm     66 % 0 in /  0.0 mm 0.0 W/m2 CLR
20:18 44.1 °F /  6.7 °C 33.4 °F /  0.8 °C 30.2 in /  1023.9 hPa Calm     66 % 0 in /  0.0 mm 0.0 W/m2 CLR
20:23 44.1 °F /  6.7 °C 33.4 °F /  0.8 °C 30.2 in /  1023.9 hPa Calm     66 % 0 in /  0.0 mm 0.0 W/m2 CLR
20:28 44.1 °F /  6.7 °C 33.4 °F /  0.8 °C 30.2 in /  1023.9 hPa Calm     66 % 0 in /  0.0 mm 0.0 W/m2 CLR
20:33 44.1 °F /  6.7 °C 33.4 °F /  0.8 °C 30.2 in /  1023.9 hPa Calm     66 % 0 in /  0.0 mm 0.0 W/m2 CLR
20:38 44.1 °F /  6.7 °C 33.6 °F /  0.9 °C 30.2 in /  1023.9 hPa Calm     67 % 0 in /  0.0 mm 0.0 W/m2 CLR
20:43 44.1 °F /  6.7 °C 33.6 °F /  0.9 °C 30.2 in /  1023.9 hPa Calm     67 % 0 in /  0.0 mm 0.0 W/m2 CLR
20:48 44.1 °F /  6.7 °C 34.2 °F /  1.2 °C 30.2 in /  1023.9 hPa Calm     68 % 0 in /  0.0 mm 0.0 W/m2 CLR
20:53 44.1 °F /  6.7 °C 34.5 °F /  1.4 °C 30.2 in /  1023.9 hPa Calm     69 % 0 in /  0.0 mm 0.0 W/m2 CLR
20:58 43 °F /  6.1 °C 33.4 °F /  0.8 °C 30.2 in /  1023.6 hPa Calm     69 % 0 in /  0.0 mm 0.0 W/m2 CLR
21:03 43 °F /  6.1 °C 34 °F /  1.1 °C 30.2 in /  1023.6 hPa Calm     70 % 0 in /  0.0 mm 0.0 W/m2 CLR
21:08 43 °F /  6.1 °C 34.2 °F /  1.2 °C 30.2 in /  1023.9 hPa Calm     71 % 0 in /  0.0 mm 0.0 W/m2 CLR
21:13 43 °F /  6.1 °C 34 °F /  1.1 °C 30.2 in /  1023.9 hPa Calm     70 % 0 in /  0.0 mm 0.0 W/m2 CLR
21:18 43 °F /  6.1 °C 34.2 °F /  1.2 °C 30.2 in /  1023.6 hPa Calm     71 % 0 in /  0.0 mm 0.0 W/m2 CLR
21:23 43 °F /  6.1 °C 34.2 °F /  1.2 °C 30.2 in /  1023.6 hPa Calm     71 % 0 in /  0.0 mm 0.0 W/m2 CLR
21:28 42.1 °F /  5.6 °C 33.6 °F /  0.9 °C 30.2 in /  1023.6 hPa Calm     72 % 0 in /  0.0 mm 0.0 W/m2 CLR
21:33 42.1 °F /  5.6 °C 33.6 °F /  0.9 °C 30.2 in /  1023.6 hPa Calm     72 % 0 in /  0.0 mm 0.0 W/m2 CLR
21:38 42.1 °F /  5.6 °C 33.6 °F /  0.9 °C 30.2 in /  1023.6 hPa Calm     72 % 0 in /  0.0 mm 0.0 W/m2 CLR
21:43 42.1 °F /  5.6 °C 33.6 °F /  0.9 °C 30.2 in /  1023.6 hPa Calm     72 % 0 in /  0.0 mm 0.0 W/m2 CLR
21:48 42.1 °F /  5.6 °C 33.6 °F /  0.9 °C 30.2 in /  1023.6 hPa Calm     72 % 0 in /  0.0 mm 0.0 W/m2 CLR
21:53 43 °F /  6.1 °C 34.9 °F /  1.6 °C 30.2 in /  1023.6 hPa Calm     73 % 0 in /  0.0 mm 0.0 W/m2 CLR
21:58 43 °F /  6.1 °C 35.2 °F /  1.8 °C 30.2 in /  1023.2 hPa Calm     74 % 0 in /  0.0 mm 0.0 W/m2 CLR
22:03 43 °F /  6.1 °C 35.2 °F /  1.8 °C 30.2 in /  1023.2 hPa Calm     74 % 0 in /  0.0 mm 0.0 W/m2 CLR
22:08 43 °F /  6.1 °C 35.2 °F /  1.8 °C 30.2 in /  1023.2 hPa Calm     74 % 0 in /  0.0 mm 0.0 W/m2 CLR
22:13 43 °F /  6.1 °C 35.2 °F /  1.8 °C 30.2 in /  1023.2 hPa Calm     74 % 0 in /  0.0 mm 0.0 W/m2 CLR
22:18 43 °F /  6.1 °C 35.6 °F /  2.0 °C 30.2 in /  1022.9 hPa Calm     75 % 0 in /  0.0 mm 0.0 W/m2 CLR
22:23 43 °F /  6.1 °C 35.6 °F /  2.0 °C 30.2 in /  1023.2 hPa Calm     75 % 0 in /  0.0 mm 0.0 W/m2 CLR
22:33 43 °F /  6.1 °C 35.6 °F /  2.0 °C 30.2 in /  1022.9 hPa Calm     75 % 0 in /  0.0 mm 0.0 W/m2 CLR
22:40 43 °F /  6.1 °C 35.6 °F /  2.0 °C 30.2 in /  1022.9 hPa Calm     75 % 0 in /  0.0 mm 0.0 W/m2 CLR
22:45 43 °F /  6.1 °C 35.6 °F /  2.0 °C 30.2 in /  1022.9 hPa Calm     75 % 0 in /  0.0 mm 0.0 W/m2 CLR
22:50 43 °F /  6.1 °C 35.6 °F /  2.0 °C 30.2 in /  1022.9 hPa Calm     75 % 0 in /  0.0 mm 0.0 W/m2 CLR
22:55 43 °F /  6.1 °C 36 °F /  2.2 °C 30.2 in /  1022.6 hPa Calm     76 % 0 in /  0.0 mm 0.0 W/m2 CLR
23:00 43 °F /  6.1 °C 36 °F /  2.2 °C 30.2 in /  1022.9 hPa Calm     76 % 0 in /  0.0 mm 0.0 W/m2 CLR
23:05 43 °F /  6.1 °C 36 °F /  2.2 °C 30.2 in /  1022.9 hPa Calm     76 % 0 in /  0.0 mm 0.0 W/m2 CLR
23:10 43 °F /  6.1 °C 36.3 °F /  2.4 °C 30.2 in /  1022.9 hPa Calm     77 % 0 in /  0.0 mm 0.0 W/m2 CLR
23:15 43 °F /  6.1 °C 36.3 °F /  2.4 °C 30.2 in /  1022.9 hPa Calm     77 % 0 in /  0.0 mm 0.0 W/m2 CLR
23:20 43 °F /  6.1 °C 36.3 °F /  2.4 °C 30.2 in /  1022.9 hPa Calm     77 % 0 in /  0.0 mm 0.0 W/m2 CLR
23:25 44.1 °F /  6.7 °C 37.2 °F /  2.9 °C 30.2 in /  1022.9 hPa Calm     77 % 0 in /  0.0 mm 0.0 W/m2 CLR
23:30 44.1 °F /  6.7 °C 37.2 °F /  2.9 °C 30.2 in /  1022.9 hPa Calm     77 % 0 in /  0.0 mm 0.0 W/m2 CLR
23:35 44.1 °F /  6.7 °C 37.2 °F /  2.9 °C 30.2 in /  1022.6 hPa Calm     77 % 0 in /  0.0 mm 0.0 W/m2 CLR
23:41 44.1 °F /  6.7 °C 37.2 °F /  2.9 °C 30.2 in /  1022.6 hPa Calm     77 % 0 in /  0.0 mm 0.0 W/m2 CLR
23:46 44.1 °F /  6.7 °C 37.2 °F /  2.9 °C 30.2 in /  1022.2 hPa Calm     77 % 0 in /  0.0 mm 0.0 W/m2 CLR
23:51 44.1 °F /  6.7 °C 36.9 °F /  2.7 °C 30.2 in /  1022.2 hPa Calm     76 % 0 in /  0.0 mm 0.0 W/m2 CLR
23:56 44.1 °F /  6.7 °C 36.9 °F /  2.7 °C 30.2 in /  1022.2 hPa Calm     76 % 0 in /  0.0 mm 0.0 W/m2 CLR
Lo Temps de Massalio
Compliments of Weather Underground - 1 mb